sim
Sign-in with your pilot id or email,
or register
Callsign
Passwort

Schedule Details

Flight Number: DLH2136
Departure: Munich Airport (EDDM) at 10:05
Arrival: Munster Osnabruck International -?Airport (EDDG) at 11:20
Route: Lufthansa Passenger Schedule. Enter filed route here before submitting Pirep.

Weather Information
Getting current METAR information for EDDM 220520Z 10002KT 2500 1000SE R08L/0900U R08R/P2000N BCFG NSC 08/08 Q1015 NOSIG
Getting current METAR information for EDDG 220520Z 00000KT 9999 0900W R07/1500N BCFG NSC 07/06 Q1011 NOSIG

Schedule Frequency

Route Map